Time;durP1;ratioP1;P1;durP2;ratioP2;P2;SDS_P1;SDS_P2;PMS_P1;PMS_P2;Temp;Humidity;BMP_temperature;BMP_pressure;BME280_temperature;BME280_humidity;BME280_pressure;Samples;Min_cycle;Max_cycle;Signal;HPM_P1;HPM_P2
2022/07/28 00:01:52;;;;;;;1.37;0.50;;;;;;;15.01;47.00;101785.84;5007252;28;97667;-50
2022/07/28 00:04:17;;;;;;;2.37;0.90;;;;;;;14.98;47.15;101797.91;5002892;28;102523;-50
2022/07/28 00:06:42;;;;;;;0.60;0.47;;;;;;;14.93;47.21;101793.09;5005328;28;97023;-50
2022/07/28 00:09:08;;;;;;;0.70;0.50;;;;;;;14.86;47.08;101790.03;5002966;28;97100;-50
2022/07/28 00:11:33;;;;;;;0.50;0.40;;;;;;;14.76;47.23;101785.94;5000940;28;99205;-50
2022/07/28 00:13:58;;;;;;;2.20;0.70;;;;;;;14.70;47.34;101779.59;5001794;28;98445;-50
2022/07/28 00:16:24;;;;;;;1.50;0.60;;;;;;;14.65;47.36;101788.63;5001627;28;97004;-49
2022/07/28 00:18:49;;;;;;;1.30;0.57;;;;;;;14.60;47.35;101781.78;5003525;28;96887;-50
2022/07/28 00:21:14;;;;;;;0.93;0.80;;;;;;;14.58;47.55;101787.06;5004373;27;100048;-50
2022/07/28 00:23:40;;;;;;;0.80;0.70;;;;;;;14.54;47.63;101791.31;5004508;28;98561;-50
2022/07/28 00:26:07;;;;;;;0.80;0.67;;;;;;;14.45;47.66;101783.94;5005055;28;96738;-50
2022/07/28 00:28:33;;;;;;;1.27;0.60;;;;;;;14.41;48.05;101788.19;4994010;28;97601;-50
2022/07/28 00:30:58;;;;;;;1.27;0.80;;;;;;;14.38;47.93;101787.16;5001203;28;97527;-50
2022/07/28 00:33:23;;;;;;;0.90;0.73;;;;;;;14.37;47.94;101787.66;4997867;28;97431;-50
2022/07/28 00:35:49;;;;;;;0.83;0.70;;;;;;;14.37;47.89;101784.88;5000333;28;96914;-50
2022/07/28 00:38:14;;;;;;;2.20;0.80;;;;;;;14.34;48.02;101778.31;5003189;28;96760;-50
2022/07/28 00:43:23;;;;;;;1.20;0.67;;;;;;;14.23;48.02;101778.97;5006408;28;101015;-50
2022/07/28 00:45:49;;;;;;;7.50;0.80;;;;;;;14.16;47.99;101779.41;4993151;28;97276;-50
2022/07/28 00:48:14;;;;;;;0.70;0.67;;;;;;;14.12;48.14;101772.56;5000262;28;97026;-50
2022/07/28 00:50:40;;;;;;;2.40;0.97;;;;;;;14.08;48.47;101785.84;4996402;27;96917;-50
2022/07/28 00:53:06;;;;;;;1.73;0.70;;;;;;;14.08;48.14;101781.09;4996686;28;98264;-50
2022/07/28 00:55:31;;;;;;;1.30;0.70;;;;;;;14.04;48.27;101777.03;4998949;28;97356;-49
2022/07/28 00:57:57;;;;;;;0.70;0.60;;;;;;;13.99;48.29;101777.72;4999031;28;96994;-50
2022/07/28 01:00:22;;;;;;;0.63;0.60;;;;;;;13.96;48.70;101781.44;5000855;28;97123;-50
2022/07/28 01:02:48;;;;;;;1.17;0.73;;;;;;;13.92;48.43;101776.16;5004027;28;98350;-50
2022/07/28 01:05:14;;;;;;;3.00;0.80;;;;;;;13.92;48.61;101780.91;5003250;28;97148;-50
2022/07/28 01:07:52;;;;;;;5.80;0.90;;;;;;;13.87;49.51;101784.41;4998239;27;97070;-50
2022/07/28 01:10:51;;;;;;;0.90;0.70;;;;;;;13.84;49.59;101788.13;4987662;28;96801;-50
2022/07/28 01:13:32;;;;;;;0.90;0.50;;;;;;;13.84;49.47;101785.38;4996807;28;102296;-49
2022/07/28 01:16:06;;;;;;;0.90;0.60;;;;;;;13.85;49.33;101792.41;4994351;28;97029;-49
2022/07/28 01:18:46;;;;;;;0.70;0.70;;;;;;;13.83;48.75;101783.84;4999057;28;96943;-50
2022/07/28 01:21:14;;;;;;;1.87;0.63;;;;;;;13.78;48.77;101795.63;4998558;28;103216;-51
2022/07/28 01:24:01;;;;;;;0.70;0.67;;;;;;;13.73;49.43;101794.31;4999515;28;97207;-51
2022/07/28 01:26:57;;;;;;;0.90;0.77;;;;;;;13.65;49.65;101789.69;5000987;28;97331;-50
2022/07/28 01:29:30;;;;;;;2.87;0.67;;;;;;;13.61;48.95;101786.38;4993463;28;98014;-56
2022/07/28 01:32:05;;;;;;;1.73;0.80;;;;;;;13.61;49.60;101798.19;4996921;28;97076;-51
2022/07/28 01:34:52;;;;;;;3.57;0.77;;;;;;;13.59;49.83;101788.84;4988543;28;97615;-51
2022/07/28 01:37:24;;;;;;;0.60;0.53;;;;;;;13.53;49.23;101800.63;4992894;28;97079;-51
2022/07/28 01:39:53;;;;;;;0.70;0.70;;;;;;;13.47;49.26;101790.75;4993661;28;97171;-49
2022/07/28 01:42:21;;;;;;;1.00;0.70;;;;;;;13.45;49.28;101793.97;4998920;28;97553;-50
2022/07/28 01:44:49;;;;;;;1.00;0.60;;;;;;;13.42;49.23;101786.66;5000781;28;97290;-50
2022/07/28 01:47:17;;;;;;;1.43;0.60;;;;;;;13.38;49.34;101791.63;5004467;28;97083;-50
2022/07/28 01:49:44;;;;;;;1.20;0.63;;;;;;;13.33;49.56;101786.03;5002339;28;96976;-51
2022/07/28 01:52:10;;;;;;;4.07;1.07;;;;;;;13.29;49.42;101791.00;5000378;28;97519;-49
2022/07/28 01:54:40;;;;;;;1.30;0.67;;;;;;;13.25;49.61;101791.22;5001178;28;97205;-51
2022/07/28 01:57:09;;;;;;;1.23;0.73;;;;;;;13.22;49.40;101786.66;4998708;28;97146;-51
2022/07/28 01:59:38;;;;;;;2.80;0.87;;;;;;;13.17;49.55;101792.13;4998163;28;96937;-51
2022/07/28 02:02:05;;;;;;;0.83;0.63;;;;;;;13.11;49.32;101782.97;4997038;27;97956;-50
2022/07/28 02:04:32;;;;;;;1.43;0.70;;;;;;;13.05;49.57;101780.16;4999715;27;97159;-50
2022/07/28 02:06:59;;;;;;;0.70;0.60;;;;;;;13.06;49.67;101789.19;5003033;28;97067;-51
2022/07/28 02:09:26;;;;;;;1.37;0.70;;;;;;;13.06;49.57;101778.88;5004910;27;96783;-50
2022/07/28 02:11:53;;;;;;;2.20;1.03;;;;;;;13.03;49.39;101781.84;5002450;28;97384;-50
2022/07/28 02:14:22;;;;;;;1.47;0.87;;;;;;;12.99;49.88;101776.53;5000543;28;96942;-50
2022/07/28 02:16:53;;;;;;;1.43;0.67;;;;;;;12.97;49.92;101767.97;5000994;28;97140;-50
2022/07/28 02:19:20;;;;;;;0.97;0.83;;;;;;;12.97;49.75;101765.19;4998608;28;97540;-50
2022/07/28 02:21:46;;;;;;;0.73;0.73;;;;;;;12.96;49.74;101774.72;4993989;28;97386;-51
2022/07/28 02:24:13;;;;;;;0.83;0.70;;;;;;;12.91;49.59;101780.16;5003628;28;98245;-51
2022/07/28 02:26:45;;;;;;;1.57;1.10;;;;;;;12.82;50.03;101772.75;4997640;28;96584;-50
2022/07/28 02:29:12;;;;;;;1.20;0.67;;;;;;;12.71;49.84;101769.84;5008372;28;97081;-49
2022/07/28 02:32:00;;;;;;;2.73;1.10;;;;;;;12.55;50.75;101767.59;5002020;28;98056;-50
2022/07/28 02:34:27;;;;;;;0.60;0.60;;;;;;;12.36;50.12;101775.28;5001951;27;101675;-51
2022/07/28 02:36:57;;;;;;;0.67;0.53;;;;;;;12.28;50.35;101768.66;5000942;27;96748;-49
2022/07/28 02:39:27;;;;;;;0.83;0.77;;;;;;;12.26;50.35;101773.88;5002359;27;97373;-51
2022/07/28 02:42:13;;;;;;;0.87;0.87;;;;;;;12.15;51.21;101762.66;5000664;28;102222;-50
2022/07/28 02:45:00;;;;;;;1.20;0.83;;;;;;;12.09;51.49;101781.13;5001135;28;100175;-51
2022/07/28 02:47:29;;;;;;;0.60;0.57;;;;;;;12.00;50.60;101761.91;5002855;27;97115;-49
2022/07/28 02:49:57;;;;;;;0.83;0.73;;;;;;;11.96;50.55;101755.81;4999555;28;96949;-51
2022/07/28 02:52:25;;;;;;;0.60;0.60;;;;;;;11.98;50.35;101769.88;5000544;28;97031;-50
2022/07/28 02:54:51;;;;;;;0.93;0.70;;;;;;;11.96;50.42;101764.09;5005164;27;97685;-50
2022/07/28 02:57:18;;;;;;;1.10;0.70;;;;;;;11.94;50.33;101772.84;5005074;28;97000;-50
2022/07/28 02:59:44;;;;;;;0.70;0.70;;;;;;;11.94;50.29;101772.09;5003683;28;96738;-48
2022/07/28 03:02:10;;;;;;;0.50;0.50;;;;;;;11.94;50.54;101774.84;5002517;28;97480;-51
2022/07/28 03:07:25;;;;;;;1.27;0.80;;;;;;;11.98;50.38;101770.66;5002409;27;97046;-49
2022/07/28 03:09:50;;;;;;;0.60;0.60;;;;;;;11.99;50.36;101772.16;4997510;27;96755;-55
2022/07/28 03:12:15;;;;;;;1.80;0.80;;;;;;;11.97;50.25;101771.13;5005774;27;96939;-50
2022/07/28 03:14:41;;;;;;;2.83;0.80;;;;;;;11.93;50.22;101768.56;5001117;28;99666;-50
2022/07/28 03:17:07;;;;;;;0.80;0.80;;;;;;;11.90;50.27;101775.00;5006440;28;98432;-50
2022/07/28 03:19:32;;;;;;;0.90;0.80;;;;;;;11.87;50.35;101775.19;5004709;28;97141;-50
2022/07/28 03:21:58;;;;;;;2.00;0.70;;;;;;;11.78;50.29;101786.31;5002118;28;97267;-50
2022/07/28 03:24:26;;;;;;;3.03;1.00;;;;;;;11.75;50.65;101788.00;5004154;28;96910;-51
2022/07/28 03:27:01;;;;;;;0.70;0.70;;;;;;;11.79;50.81;101785.84;4999498;28;96712;-51
2022/07/28 03:29:30;;;;;;;1.67;1.10;;;;;;;11.78;50.32;101783.56;5000915;28;101654;-50
2022/07/28 03:31:58;;;;;;;0.97;0.60;;;;;;;11.76;50.50;101789.53;5000858;28;97053;-50
2022/07/28 03:34:23;;;;;;;2.73;0.90;;;;;;;11.77;50.66;101788.31;5002034;27;97313;-50
2022/07/28 03:36:59;;;;;;;3.33;0.60;;;;;;;11.82;50.89;101797.91;4999992;28;97485;-50
2022/07/28 03:39:28;;;;;;;1.53;0.50;;;;;;;11.86;50.66;101795.75;5006223;28;98683;-50
2022/07/28 03:41:54;;;;;;;1.70;0.63;;;;;;;11.85;50.53;101792.22;5006107;28;97808;-50
2022/07/28 03:44:21;;;;;;;0.70;0.70;;;;;;;11.85;50.67;101800.50;4999933;28;97358;-51
2022/07/28 03:46:46;;;;;;;1.33;0.53;;;;;;;11.85;50.66;101806.00;5005068;28;97059;-48
2022/07/28 03:49:12;;;;;;;0.60;0.60;;;;;;;11.83;50.82;101813.22;4995280;28;96959;-50
2022/07/28 03:51:38;;;;;;;0.60;0.60;;;;;;;11.84;50.89;101811.97;5001023;28;97336;-51
2022/07/28 03:54:03;;;;;;;1.00;0.80;;;;;;;11.86;50.92;101812.31;5000383;27;100307;-51
2022/07/28 03:56:28;;;;;;;0.80;0.63;;;;;;;11.86;50.69;101813.03;5004725;28;97055;-50
2022/07/28 03:58:54;;;;;;;1.10;0.80;;;;;;;11.84;50.69;101815.50;5002860;28;96688;-49
2022/07/28 04:01:19;;;;;;;2.27;0.97;;;;;;;11.84;50.87;101804.47;4997419;28;97371;-51
2022/07/28 04:03:44;;;;;;;2.13;0.50;;;;;;;11.84;50.78;101807.25;4994161;28;97163;-49
2022/07/28 04:06:13;;;;;;;0.60;0.50;;;;;;;11.89;51.04;101812.09;5003876;28;96996;-51
2022/07/28 04:08:39;;;;;;;2.50;0.70;;;;;;;11.94;50.84;101816.19;5002559;28;97268;-51
2022/07/28 04:11:04;;;;;;;0.90;0.90;;;;;;;11.99;50.90;101819.06;5003181;27;97196;-50
2022/07/28 04:13:30;;;;;;;0.60;0.60;;;;;;;11.98;50.80;101812.03;4999526;28;97154;-51
2022/07/28 04:15:56;;;;;;;0.73;0.73;;;;;;;11.97;50.78;101827.03;4999784;27;96990;-51
2022/07/28 04:18:22;;;;;;;2.60;0.57;;;;;;;11.97;51.04;101829.78;5005435;27;97354;-51
2022/07/28 04:20:47;;;;;;;2.50;1.00;;;;;;;12.00;51.01;101823.34;5005396;27;97369;-51
2022/07/28 04:23:12;;;;;;;3.97;0.60;;;;;;;12.03;51.10;101825.13;5000328;28;96994;-50
2022/07/28 04:25:38;;;;;;;0.90;0.70;;;;;;;12.07;51.02;101821.44;4993068;28;97294;-50
2022/07/28 04:28:03;;;;;;;1.37;0.70;;;;;;;12.10;51.07;101826.03;4996453;28;96911;-50
2022/07/28 04:30:28;;;;;;;0.70;0.70;;;;;;;12.12;51.06;101824.31;4995516;28;97341;-50
2022/07/28 04:32:55;;;;;;;1.27;0.73;;;;;;;12.15;51.10;101825.34;4995284;28;98365;-50
2022/07/28 04:35:26;;;;;;;0.60;0.60;;;;;;;12.20;51.17;101824.69;4998038;28;96646;-50
2022/07/28 04:37:54;;;;;;;1.40;0.60;;;;;;;12.24;51.37;101816.97;4999886;28;96773;-50
2022/07/28 04:40:20;;;;;;;1.53;0.63;;;;;;;12.26;51.35;101815.28;4999004;28;96866;-51
2022/07/28 04:42:46;;;;;;;3.30;0.90;;;;;;;12.28;51.31;101803.75;5004148;28;97156;-51
2022/07/28 04:45:11;;;;;;;0.70;0.60;;;;;;;12.32;51.30;101798.84;4999021;28;96942;-50
2022/07/28 04:47:37;;;;;;;0.73;0.73;;;;;;;12.34;51.34;101805.38;4997157;28;97077;-49
2022/07/28 04:50:05;;;;;;;2.70;0.70;;;;;;;12.39;51.36;101803.94;4994281;28;97298;-49
2022/07/28 04:52:30;;;;;;;0.80;0.70;;;;;;;12.44;51.49;101801.28;5002907;28;96735;-50
2022/07/28 04:54:55;;;;;;;0.70;0.60;;;;;;;12.53;51.51;101808.72;4998865;27;96746;-50
2022/07/28 04:57:21;;;;;;;1.30;0.60;;;;;;;12.59;51.42;101806.78;5004589;27;97202;-50
2022/07/28 04:59:47;;;;;;;0.70;0.60;;;;;;;12.67;51.60;101807.91;5003378;28;97600;-51
2022/07/28 05:02:12;;;;;;;2.40;0.77;;;;;;;12.75;51.62;101804.28;5001319;28;98367;-50
2022/07/28 05:04:38;;;;;;;1.03;0.90;;;;;;;12.81;51.65;101801.63;5000716;27;98236;-50
2022/07/28 05:07:04;;;;;;;0.60;0.60;;;;;;;12.88;51.67;101801.22;5002156;27;97365;-51
2022/07/28 05:09:30;;;;;;;0.73;0.67;;;;;;;12.95;51.60;101806.34;4996614;27;96764;-50
2022/07/28 05:11:56;;;;;;;1.10;0.80;;;;;;;13.02;51.80;101802.44;4998482;28;96966;-49
2022/07/28 05:14:21;;;;;;;0.97;0.73;;;;;;;13.08;51.59;101800.53;4994127;28;97293;-51
2022/07/28 05:16:47;;;;;;;0.83;0.83;;;;;;;13.13;51.72;101803.34;4997947;28;96793;-50
2022/07/28 05:19:12;;;;;;;1.97;0.87;;;;;;;13.17;51.81;101792.84;4997066;28;97718;-57
2022/07/28 05:21:37;;;;;;;0.63;0.63;;;;;;;13.23;51.80;101804.75;5003636;28;97116;-50
2022/07/28 05:24:03;;;;;;;1.00;0.90;;;;;;;13.21;51.99;101810.00;5001744;28;96918;-50
2022/07/28 05:26:31;;;;;;;1.57;0.77;;;;;;;13.16;52.04;101813.44;5004722;28;96990;-51
2022/07/28 05:28:56;;;;;;;1.23;0.50;;;;;;;13.22;52.05;101810.75;5001955;28;96951;-50
2022/07/28 05:31:21;;;;;;;2.23;1.20;;;;;;;13.25;52.29;101813.31;5001501;28;97295;-50
2022/07/28 05:33:47;;;;;;;0.60;0.60;;;;;;;13.26;52.04;101812.06;4999912;28;96795;-49
2022/07/28 05:36:12;;;;;;;0.83;0.77;;;;;;;13.31;52.17;101821.69;5006272;28;97434;-50
2022/07/28 05:38:38;;;;;;;0.80;0.80;;;;;;;13.38;52.26;101819.28;4999125;28;96880;-49
2022/07/28 05:41:05;;;;;;;1.33;0.90;;;;;;;13.45;52.06;101821.59;5006545;28;103554;-50
2022/07/28 05:43:30;;;;;;;0.73;0.70;;;;;;;13.54;52.11;101824.25;4996200;28;97482;-50
2022/07/28 05:45:56;;;;;;;1.97;0.77;;;;;;;13.64;52.26;101832.41;5003827;28;97228;-51
2022/07/28 05:48:21;;;;;;;0.60;0.60;;;;;;;13.71;52.03;101835.53;5005187;27;97461;-51
2022/07/28 05:50:50;;;;;;;1.40;0.63;;;;;;;13.79;52.19;101833.84;5003074;28;96984;-50
2022/07/28 05:53:16;;;;;;;1.10;0.83;;;;;;;13.87;52.14;101831.44;5001658;28;96792;-50
2022/07/28 05:55:42;;;;;;;2.23;0.90;;;;;;;13.95;52.26;101840.81;4999163;28;97195;-49
2022/07/28 05:58:07;;;;;;;1.33;0.57;;;;;;;14.03;52.08;101822.53;4999642;28;98680;-50
2022/07/28 06:00:33;;;;;;;2.50;0.83;;;;;;;14.10;52.13;101835.94;4999278;27;97055;-50
2022/07/28 06:03:01;;;;;;;2.10;0.97;;;;;;;14.20;51.92;101845.59;4999819;28;96895;-51
2022/07/28 06:05:29;;;;;;;1.77;0.77;;;;;;;14.32;52.26;101843.72;5003938;28;97237;-51
2022/07/28 06:07:54;;;;;;;0.70;0.70;;;;;;;14.42;52.13;101839.53;5003685;28;97708;-50
2022/07/28 06:10:22;;;;;;;2.20;0.80;;;;;;;14.54;52.36;101841.94;5006637;27;96946;-49
2022/07/28 06:12:53;;;;;;;0.80;0.73;;;;;;;14.66;52.22;101843.53;5005075;28;97135;-50
2022/07/28 06:15:21;;;;;;;2.20;1.00;;;;;;;14.77;52.17;101845.63;5003251;28;96775;-50
2022/07/28 06:17:47;;;;;;;2.53;1.23;;;;;;;14.87;51.89;101847.72;5001512;28;97164;-50
2022/07/28 06:20:13;;;;;;;4.53;1.03;;;;;;;14.99;51.91;101843.78;5000356;28;97007;-50
2022/07/28 06:22:46;;;;;;;3.03;1.00;;;;;;;15.11;52.29;101852.16;5003501;28;96673;-51
2022/07/28 06:25:17;;;;;;;1.30;0.80;;;;;;;15.21;51.96;101848.69;4999506;28;97023;-51
2022/07/28 06:27:50;;;;;;;2.30;0.80;;;;;;;15.29;52.14;101846.25;5005917;28;97202;-52
2022/07/28 06:30:16;;;;;;;1.83;0.60;;;;;;;15.39;52.01;101853.84;4999718;28;98732;-51
2022/07/28 06:32:43;;;;;;;5.33;0.70;;;;;;;15.50;51.93;101858.72;5008985;28;97029;-51
2022/07/28 06:35:09;;;;;;;1.63;0.80;;;;;;;15.58;51.86;101860.53;5006880;27;96872;-51
2022/07/28 06:37:34;;;;;;;1.13;0.80;;;;;;;15.65;51.81;101854.50;5005441;27;96550;-51
2022/07/28 06:39:59;;;;;;;1.00;0.93;;;;;;;15.73;51.78;101855.53;5002878;28;97100;-51
2022/07/28 06:42:25;;;;;;;2.97;0.67;;;;;;;15.80;51.80;101859.09;5001882;28;96749;-54
2022/07/28 06:44:51;;;;;;;1.53;0.70;;;;;;;15.86;51.92;101860.63;5003107;27;97054;-51
2022/07/28 06:47:17;;;;;;;1.27;0.60;;;;;;;15.91;51.85;101854.34;5004477;27;97398;-50
2022/07/28 06:49:42;;;;;;;0.90;0.80;;;;;;;15.95;51.81;101856.84;5003129;28;97261;-51
2022/07/28 06:52:08;;;;;;;3.10;0.80;;;;;;;15.99;51.77;101863.69;5008432;28;97022;-50
2022/07/28 06:54:33;;;;;;;1.27;0.77;;;;;;;16.04;51.88;101854.63;4999415;28;97008;-51
2022/07/28 06:56:59;;;;;;;1.27;0.50;;;;;;;16.09;51.89;101853.13;5007148;28;97430;-51
2022/07/28 06:59:24;;;;;;;1.40;0.70;;;;;;;16.15;51.81;101851.13;5007240;28;96873;-48
2022/07/28 07:01:50;;;;;;;5.30;0.90;;;;;;;16.20;51.93;101856.69;5004303;28;96895;-51
2022/07/28 07:04:15;;;;;;;1.33;0.80;;;;;;;16.28;51.88;101851.38;5005129;28;97480;-51
2022/07/28 07:06:41;;;;;;;2.23;0.63;;;;;;;16.35;51.96;101848.88;5004661;28;97142;-49
2022/07/28 07:09:06;;;;;;;0.93;0.93;;;;;;;16.44;51.92;101851.41;5003416;28;97487;-51
2022/07/28 07:11:31;;;;;;;1.13;0.60;;;;;;;16.54;51.96;101849.16;5004995;27;97214;-51
2022/07/28 07:13:57;;;;;;;0.57;0.50;;;;;;;16.63;51.79;101845.38;5007512;28;96783;-51
2022/07/28 07:16:22;;;;;;;1.47;0.50;;;;;;;16.72;51.91;101850.69;5005513;28;96981;-51
2022/07/28 07:18:51;;;;;;;1.00;0.47;;;;;;;16.82;52.00;101840.84;4992658;28;96893;-51
2022/07/28 07:21:17;;;;;;;1.53;1.00;;;;;;;16.92;51.96;101850.41;5000331;27;96617;-51
2022/07/28 07:23:42;;;;;;;2.60;0.80;;;;;;;17.03;51.72;101842.06;4996315;28;96918;-51
2022/07/28 07:26:07;;;;;;;1.37;0.83;;;;;;;17.07;51.70;101843.31;5002131;28;97357;-52
2022/07/28 07:28:33;;;;;;;2.83;1.00;;;;;;;17.15;51.70;101840.75;5001782;27;97246;-51
2022/07/28 07:30:59;;;;;;;1.27;0.63;;;;;;;17.29;51.67;101841.75;5003017;28;97199;-51
2022/07/28 07:33:24;;;;;;;1.80;0.90;;;;;;;17.43;51.64;101840.69;5005708;28;97081;-51
2022/07/28 07:35:50;;;;;;;4.40;0.63;;;;;;;17.55;51.63;101842.19;5007079;28;97016;-51
2022/07/28 07:38:15;;;;;;;2.13;0.60;;;;;;;17.67;51.35;101838.84;5004953;28;97305;-49
2022/07/28 07:40:40;;;;;;;2.10;0.60;;;;;;;17.77;51.30;101839.31;5001343;28;96651;-51
2022/07/28 07:43:06;;;;;;;2.80;0.90;;;;;;;17.85;51.19;101834.72;4993143;28;97107;-51
2022/07/28 07:45:33;;;;;;;2.43;1.20;;;;;;;17.95;50.96;101835.94;4997356;28;97350;-51
2022/07/28 07:47:59;;;;;;;0.90;0.60;;;;;;;18.10;50.83;101832.81;4999672;28;97106;-51
2022/07/28 07:50:24;;;;;;;1.10;0.60;;;;;;;18.25;50.65;101833.19;5000252;28;96766;-52
2022/07/28 07:52:49;;;;;;;2.03;0.60;;;;;;;18.35;50.56;101837.94;5000576;28;97055;-51
2022/07/28 07:55:16;;;;;;;0.80;0.50;;;;;;;18.46;50.12;101843.47;5003013;28;96950;-51
2022/07/28 07:57:41;;;;;;;2.70;0.97;;;;;;;18.58;50.11;101828.16;5001833;27;96880;-51
2022/07/28 08:00:07;;;;;;;0.83;0.60;;;;;;;18.67;49.66;101829.88;5008093;28;96974;-52
2022/07/28 08:02:33;;;;;;;2.50;0.80;;;;;;;18.70;49.58;101832.34;4997143;28;97097;-52
2022/07/28 08:04:59;;;;;;;1.00;0.57;;;;;;;18.78;49.43;101835.34;4995385;28;98518;-50
2022/07/28 08:07:25;;;;;;;2.70;0.50;;;;;;;18.90;49.35;101831.16;4998316;27;97635;-51
2022/07/28 08:09:50;;;;;;;2.30;0.80;;;;;;;19.05;48.92;101837.09;4995428;28;97426;-50
2022/07/28 08:12:15;;;;;;;0.60;0.47;;;;;;;19.17;48.58;101841.28;4998672;28;97407;-51
2022/07/28 08:14:41;;;;;;;1.93;0.80;;;;;;;19.22;48.28;101823.72;4999945;28;97545;-51
2022/07/28 08:17:06;;;;;;;1.80;0.80;;;;;;;19.33;48.17;101829.16;4999839;28;96774;-51
2022/07/28 08:19:31;;;;;;;1.77;0.70;;;;;;;19.42;47.50;101831.63;5001583;28;97334;-52
2022/07/28 08:21:57;;;;;;;1.53;0.70;;;;;;;19.52;47.60;101839.66;5005889;27;96854;-52
2022/07/28 08:24:22;;;;;;;0.70;0.50;;;;;;;19.70;47.46;101838.91;4996230;28;97906;-52
2022/07/28 08:26:47;;;;;;;1.93;0.70;;;;;;;19.84;46.95;101829.31;5000996;28;97611;-50
2022/07/28 08:29:13;;;;;;;1.20;0.70;;;;;;;19.99;46.92;101819.19;4994657;28;97872;-53
2022/07/28 08:31:38;;;;;;;1.00;0.40;;;;;;;20.12;46.36;101833.22;5003016;28;100119;-52
2022/07/28 08:34:03;;;;;;;0.80;0.63;;;;;;;20.24;46.10;101827.50;4998552;28;98091;-52
2022/07/28 08:36:30;;;;;;;2.30;0.67;;;;;;;20.36;46.13;101829.59;4999111;28;97868;-52
2022/07/28 08:38:56;;;;;;;0.90;0.50;;;;;;;20.51;45.78;101820.72;5002522;28;96906;-52
2022/07/28 08:41:29;;;;;;;1.13;0.60;;;;;;;20.60;44.88;101826.66;4999736;28;96999;-53
2022/07/28 08:43:55;;;;;;;2.90;0.93;;;;;;;20.62;45.00;101824.06;5000000;28;96830;-53
2022/07/28 08:46:21;;;;;;;1.50;0.80;;;;;;;20.80;44.80;101828.84;5000493;28;97445;-51
2022/07/28 08:48:49;;;;;;;1.00;0.53;;;;;;;20.99;44.68;101825.22;4999876;28;96859;-52
2022/07/28 08:51:15;;;;;;;1.00;0.40;;;;;;;21.05;44.06;101835.06;4998559;27;96778;-53
2022/07/28 08:53:42;;;;;;;1.00;0.50;;;;;;;21.00;43.91;101832.31;4992214;27;97941;-53
2022/07/28 08:56:12;;;;;;;0.80;0.60;;;;;;;20.90;43.68;101820.81;5003763;28;97580;-52
2022/07/28 08:58:38;;;;;;;0.60;0.50;;;;;;;20.95;43.55;101830.38;4995604;28;97042;-52
2022/07/28 09:01:07;;;;;;;2.87;0.50;;;;;;;20.97;43.68;101811.00;5003501;27;97205;-53
2022/07/28 09:03:35;;;;;;;0.67;0.50;;;;;;;21.07;43.77;101818.47;5000508;28;96533;-53
2022/07/28 09:06:00;;;;;;;3.13;0.53;;;;;;;21.20;43.13;101812.88;5003410;28;97036;-56
2022/07/28 09:08:26;;;;;;;1.13;0.50;;;;;;;21.30;42.90;101811.13;5002534;27;97335;-52
2022/07/28 09:10:52;;;;;;;1.87;0.60;;;;;;;21.42;42.91;101804.03;4998159;28;97360;-52
2022/07/28 09:13:18;;;;;;;0.60;0.40;;;;;;;21.64;43.02;101803.53;4996945;28;98411;-53
2022/07/28 09:15:45;;;;;;;1.37;0.70;;;;;;;21.80;42.53;101801.66;4998613;28;97042;-52
2022/07/28 09:18:15;;;;;;;0.83;0.47;;;;;;;22.00;42.31;101805.84;5002096;28;96759;-52
2022/07/28 09:20:41;;;;;;;1.17;0.57;;;;;;;22.17;42.03;101804.13;5001224;28;97075;-53
2022/07/28 09:23:08;;;;;;;0.60;0.40;;;;;;;22.36;41.76;101801.91;4995888;28;99053;-53
2022/07/28 09:25:34;;;;;;;1.00;0.67;;;;;;;22.56;41.70;101805.25;4998869;28;97525;-53
2022/07/28 09:28:11;;;;;;;1.07;0.60;;;;;;;22.78;40.65;101804.69;5000912;27;97315;-52
2022/07/28 09:30:40;;;;;;;1.00;0.50;;;;;;;22.85;40.85;101815.22;5001187;28;96902;-54
2022/07/28 09:33:31;;;;;;;0.80;0.57;;;;;;;22.84;39.94;101816.53;5000495;28;97705;-53
2022/07/28 09:35:57;;;;;;;2.80;0.83;;;;;;;22.85;40.76;101810.34;4999383;27;101589;-55
2022/07/28 09:38:26;;;;;;;1.00;0.63;;;;;;;22.86;40.69;101809.06;5002976;28;97080;-54
2022/07/28 09:40:58;;;;;;;0.60;0.40;;;;;;;22.95;40.15;101810.63;4996895;28;96928;-53
2022/07/28 09:43:38;;;;;;;1.40;0.53;;;;;;;23.16;39.65;101805.69;4996560;28;96758;-52
2022/07/28 09:46:12;;;;;;;2.50;0.67;;;;;;;23.29;39.59;101799.19;4998163;28;100202;-53
2022/07/28 09:48:49;;;;;;;0.77;0.50;;;;;;;23.39;39.61;101791.78;5000978;28;97138;-51
2022/07/28 09:51:23;;;;;;;2.07;0.60;;;;;;;23.50;38.61;101802.72;5001419;28;97341;-54
2022/07/28 09:53:49;;;;;;;0.60;0.40;;;;;;;23.54;39.55;101803.84;4999794;28;97377;-53
2022/07/28 09:56:15;;;;;;;1.33;0.70;;;;;;;23.68;39.32;101796.00;5000371;28;96590;-53
2022/07/28 09:58:51;;;;;;;0.80;0.40;;;;;;;23.83;38.91;101796.81;5000605;28;97076;-53
2022/07/28 10:01:19;;;;;;;1.20;0.50;;;;;;;23.96;39.18;101797.97;5000220;27;96887;-52
2022/07/28 10:03:49;;;;;;;2.70;0.60;;;;;;;23.99;38.28;101796.84;4991306;28;101923;-53
2022/07/28 10:06:23;;;;;;;1.63;0.60;;;;;;;23.98;37.67;101795.38;5000083;27;96704;-53
2022/07/28 10:08:50;;;;;;;1.47;0.70;;;;;;;23.93;38.35;101796.28;5028074;22;97228;-50
2022/07/28 10:11:26;;;;;;;1.10;0.40;;;;;;;23.74;37.52;101800.16;5011491;27;97295;-50
2022/07/28 10:14:03;;;;;;;0.60;0.50;;;;;;;23.63;37.79;101794.16;5009876;27;101846;-51
2022/07/28 10:16:33;;;;;;;0.70;0.53;;;;;;;23.59;38.32;101796.56;5007774;27;102362;-51
2022/07/28 10:19:00;;;;;;;0.93;0.53;;;;;;;23.61;38.56;101791.13;4998005;28;96952;-50
2022/07/28 10:21:27;;;;;;;0.70;0.70;;;;;;;23.74;38.34;101796.63;4983161;28;97018;-49
2022/07/28 10:24:14;;;;;;;1.47;0.70;;;;;;;23.95;37.97;101793.66;4985196;28;96762;-50
2022/07/28 10:26:43;;;;;;;2.00;0.93;;;;;;;24.02;37.66;101790.88;4975375;28;102696;-50
2022/07/28 10:29:14;;;;;;;0.80;0.60;;;;;;;24.13;38.12;101786.97;4985133;28;97217;-50
2022/07/28 10:31:51;;;;;;;0.97;0.50;;;;;;;24.27;37.17;101785.47;4988284;28;96973;-50
2022/07/28 10:34:22;;;;;;;0.77;0.43;;;;;;;24.30;37.21;101785.13;4983850;28;100482;-50
2022/07/28 10:36:53;;;;;;;0.70;0.50;;;;;;;24.35;37.34;101780.63;4982615;28;100375;-50
2022/07/28 10:39:22;;;;;;;1.00;0.60;;;;;;;24.49;37.11;101781.91;4982800;28;97374;-50
2022/07/28 10:41:49;;;;;;;1.43;0.60;;;;;;;24.49;37.19;101773.47;4984654;28;96945;-50
2022/07/28 10:44:18;;;;;;;1.63;0.57;;;;;;;24.56;37.29;101776.31;4984437;28;97491;-49
2022/07/28 10:46:44;;;;;;;1.33;0.50;;;;;;;24.68;36.98;101773.84;4981703;28;97427;-49
2022/07/28 10:49:11;;;;;;;1.00;0.70;;;;;;;24.76;36.70;101777.44;4983248;28;97671;-51
2022/07/28 10:51:40;;;;;;;0.93;0.50;;;;;;;24.88;36.32;101770.06;4985368;28;96959;-50
2022/07/28 10:54:44;;;;;;;1.00;0.57;;;;;;;24.87;35.81;101768.59;4985769;28;97273;-51
2022/07/28 10:57:11;;;;;;;1.10;0.50;;;;;;;24.86;36.05;101769.13;4962145;28;101506;-51
2022/07/28 11:00:16;;;;;;;1.67;0.90;;;;;;;24.75;34.90;101764.66;4985299;28;96728;-51
2022/07/28 11:02:45;;;;;;;0.70;0.57;;;;;;;24.42;36.12;101780.59;4982007;28;97362;-50
2022/07/28 11:05:29;;;;;;;2.10;0.60;;;;;;;24.32;36.22;101762.81;4985324;28;100452;-49
2022/07/28 11:08:00;;;;;;;2.43;0.67;;;;;;;24.30;36.68;101759.81;4985225;28;100087;-52
2022/07/28 11:10:26;;;;;;;0.70;0.50;;;;;;;24.23;36.78;101754.91;4985121;28;97168;-50
2022/07/28 11:12:54;;;;;;;2.30;0.80;;;;;;;24.34;36.87;101756.59;4986811;28;97976;-49
2022/07/28 11:15:34;;;;;;;1.03;0.50;;;;;;;24.45;35.89;101759.03;4981986;28;98849;-51
2022/07/28 11:18:01;;;;;;;1.37;0.50;;;;;;;24.54;36.46;101758.47;4980777;28;99980;-52
2022/07/28 11:20:57;;;;;;;1.97;0.80;;;;;;;24.68;35.90;101756.97;4984331;28;96795;-50
2022/07/28 11:23:45;;;;;;;1.37;0.90;;;;;;;24.78;34.74;101752.28;4986004;28;97181;-50
2022/07/28 11:26:23;;;;;;;0.90;0.70;;;;;;;24.83;34.80;101751.34;4981541;28;100561;-50
2022/07/28 11:29:07;;;;;;;1.00;0.50;;;;;;;24.91;34.67;101745.69;4987093;28;97398;-50
2022/07/28 11:31:44;;;;;;;0.60;0.47;;;;;;;24.92;35.24;101747.19;4983996;28;97399;-49
2022/07/28 11:34:14;;;;;;;0.60;0.40;;;;;;;25.03;35.49;101729.88;4983559;28;97178;-51
2022/07/28 11:37:04;;;;;;;1.00;0.60;;;;;;;24.95;35.43;101737.59;4977876;28;98242;-51